Historyczne dane pomiarowe

Dodano dane terminowe – wersja testowa.

Dane z okresu 1951-2019

Wersja bazy: 1.34 [2019-03-16, lista zmian], aktualizacja planowana na 2019-04-15

Dane meteo z obszaru Polski uzyskane na podstawie danych udostępnionych przez Instytut Meteorologii i Gospodarki Wodnej – Państwowy Instytut Badawczy.

 

Wybierz Datę:    

       

TemperaturaWilgotnośćWiatrCiśnienieOpadyŚniegCzas trwania zjawisk
 Stacja t tx tn tng RH VA  wxwx mslp ppp RRR   cm mm wxwxwxwxwxwxwx
2010-06-13 15.8 21.6 11.1--- 6.7----- 9.8------------
2010-06-14 13.9 17.2 11.1--- 7.0----- 4.2------------
2010-06-15 14.2 20.0 7.0--- 4.0----- 0.0------------
2010-06-16 14.7 20.2 9.9--- 2.3----- 0.0------------
2010-06-17 14.6 22.0 5.7--- 0.0----- 0.0------------
2010-06-18 14.7 20.2 8.1--- 8.0----- 1.4------------
2010-06-19 13.3 17.4 9.8--- 6.3----- 0.0------------
2010-06-20 12.5 18.6 6.2--- 7.0----- 0.0------------
2010-06-21 14.9 18.9 11.2--- 7.0----- 0.0------------
2010-06-22 15.4 21.0 9.6--- 3.0----- 0.0------------
2010-06-23 14.5 20.0 6.6--- 2.0----- 0.0------------
2010-06-24 16.9 22.4 9.8--- 3.3----- 0.0------------
2010-06-25 17.2 22.9 12.0--- 2.3----- 0.0------------
2010-06-26 17.8 24.4 9.7--- 3.3----- 0.0------------
2010-06-27 17.3 23.4 9.8--- 0.0----- 0.0------------
2010-06-28 18.7 26.1 8.1--- 0.0----- 0.0------------
2010-06-29 20.3 27.8 11.0--- 0.0----- 0.0------------
2010-06-30 21.2 29.3 12.1--- 0.7----- 0.0------------
2010-07-01 23.3 27.2 21.0--- 2.7----- 0.0------------
2010-07-02 24.7 30.2 21.2--- 0.0----- 0.0------------
2010-07-03 23.4 28.7 20.2--- 0.0----- 0.0------------
2010-07-04 22.8 28.0 19.4--- 0.7----- 0.0------------
2010-07-05 22.1 28.6 18.4--- 1.3----- 5.4------------
2010-07-06 17.7 24.0 14.8--- 8.0----- 3.2------------
2010-07-07 18.1 22.0 15.0--- 3.0----- 0.0------------
2010-07-08 20.0 25.5 15.7--- 0.3----- 0.0------------
2010-07-09 23.2 29.4 19.0--- 0.0----- 0.0------------
2010-07-10 25.6 32.0 21.8--- 0.0----- 0.0------------
2010-07-11 27.3 32.0 24.0--- 0.0----- 0.0------------
2010-07-12 28.0 33.0 25.2--- 0.0----- 0.0------------
79.1 ms

 

Źródłem pochodzenia danych jest Instytut Meteorologii i Gospodarki Wodnej – Państwowy Instytut Badawczy. Dane Instytutu Meteorologii i Gospodarki Wodnej – Państwowego Instytutu Badawczego zostały przetworzone.

Dane źródłowe można odnaleźć na stronie https://dane.imgw.pl